sensor_id;sensor_type;location;lat;lon;timestamp;temperature;humidity
21023;DHT22;10669;51.076;3.714;2022-07-04T00:00:28;16.80;99.90
21023;DHT22;10669;51.076;3.714;2022-07-04T00:02:54;16.70;99.90
21023;DHT22;10669;51.076;3.714;2022-07-04T00:05:20;16.60;99.90
21023;DHT22;10669;51.076;3.714;2022-07-04T00:07:47;16.70;99.90
21023;DHT22;10669;51.076;3.714;2022-07-04T00:10:17;16.50;99.90
21023;DHT22;10669;51.076;3.714;2022-07-04T00:12:43;16.60;99.90
21023;DHT22;10669;51.076;3.714;2022-07-04T00:15:09;16.70;99.90
21023;DHT22;10669;51.076;3.714;2022-07-04T00:17:35;16.70;99.90
21023;DHT22;10669;51.076;3.714;2022-07-04T00:20:01;16.80;99.90
21023;DHT22;10669;51.076;3.714;2022-07-04T00:22:27;16.60;99.90
21023;DHT22;10669;51.076;3.714;2022-07-04T00:24:53;16.70;99.90
21023;DHT22;10669;51.076;3.714;2022-07-04T00:27:20;16.40;99.90
21023;DHT22;10669;51.076;3.714;2022-07-04T00:29:45;16.00;99.90
21023;DHT22;10669;51.076;3.714;2022-07-04T00:32:11;16.10;99.90
21023;DHT22;10669;51.076;3.714;2022-07-04T00:34:36;15.80;99.90
21023;DHT22;10669;51.076;3.714;2022-07-04T00:37:02;16.00;99.90
21023;DHT22;10669;51.076;3.714;2022-07-04T00:39:28;16.50;99.90
21023;DHT22;10669;51.076;3.714;2022-07-04T00:41:54;16.50;99.90
21023;DHT22;10669;51.076;3.714;2022-07-04T00:44:19;16.60;99.90
21023;DHT22;10669;51.076;3.714;2022-07-04T00:46:46;16.60;99.90
21023;DHT22;10669;51.076;3.714;2022-07-04T00:49:14;16.60;99.90
21023;DHT22;10669;51.076;3.714;2022-07-04T00:51:42;16.50;99.90
21023;DHT22;10669;51.076;3.714;2022-07-04T00:54:10;16.40;99.90
21023;DHT22;10669;51.076;3.714;2022-07-04T00:56:36;16.30;99.90
21023;DHT22;10669;51.076;3.714;2022-07-04T00:59:03;16.10;99.90
21023;DHT22;10669;51.076;3.714;2022-07-04T01:01:29;16.20;99.90
21023;DHT22;10669;51.076;3.714;2022-07-04T01:03:56;16.10;99.90
21023;DHT22;10669;51.076;3.714;2022-07-04T01:06:22;16.00;99.90
21023;DHT22;10669;51.076;3.714;2022-07-04T01:08:48;15.90;99.90
21023;DHT22;10669;51.076;3.714;2022-07-04T01:11:14;15.90;99.90
21023;DHT22;10669;51.076;3.714;2022-07-04T01:13:41;15.90;99.90
21023;DHT22;10669;51.076;3.714;2022-07-04T01:16:08;15.90;99.90
21023;DHT22;10669;51.076;3.714;2022-07-04T01:18:34;15.90;99.90
21023;DHT22;10669;51.076;3.714;2022-07-04T01:20:59;15.80;99.90
21023;DHT22;10669;51.076;3.714;2022-07-04T01:23:26;15.90;99.90
21023;DHT22;10669;51.076;3.714;2022-07-04T01:25:52;15.90;99.90
21023;DHT22;10669;51.076;3.714;2022-07-04T01:28:18;15.80;99.90
21023;DHT22;10669;51.076;3.714;2022-07-04T01:30:44;15.80;99.90
21023;DHT22;10669;51.076;3.714;2022-07-04T01:33:10;15.80;99.90
21023;DHT22;10669;51.076;3.714;2022-07-04T01:35:36;15.80;99.90
21023;DHT22;10669;51.076;3.714;2022-07-04T01:38:02;15.60;99.90
21023;DHT22;10669;51.076;3.714;2022-07-04T01:40:27;15.60;99.90
21023;DHT22;10669;51.076;3.714;2022-07-04T01:42:53;15.60;99.90
21023;DHT22;10669;51.076;3.714;2022-07-04T01:45:19;15.60;99.90
21023;DHT22;10669;51.076;3.714;2022-07-04T01:47:45;15.60;99.90
21023;DHT22;10669;51.076;3.714;2022-07-04T01:50:11;15.70;99.90
21023;DHT22;10669;51.076;3.714;2022-07-04T01:52:40;15.80;99.90
21023;DHT22;10669;51.076;3.714;2022-07-04T01:55:06;15.80;99.90
21023;DHT22;10669;51.076;3.714;2022-07-04T01:57:32;15.70;99.90
21023;DHT22;10669;51.076;3.714;2022-07-04T01:59:58;15.70;99.90
21023;DHT22;10669;51.076;3.714;2022-07-04T02:02:42;15.60;99.90
21023;DHT22;10669;51.076;3.714;2022-07-04T02:05:08;15.50;99.90
21023;DHT22;10669;51.076;3.714;2022-07-04T02:07:34;15.60;99.90
21023;DHT22;10669;51.076;3.714;2022-07-04T02:10:00;15.70;99.90
21023;DHT22;10669;51.076;3.714;2022-07-04T02:12:25;15.80;99.90
21023;DHT22;10669;51.076;3.714;2022-07-04T02:15:10;15.70;99.90
21023;DHT22;10669;51.076;3.714;2022-07-04T02:17:36;15.60;99.90
21023;DHT22;10669;51.076;3.714;2022-07-04T02:20:02;15.70;99.90
21023;DHT22;10669;51.076;3.714;2022-07-04T02:22:30;15.70;99.90
21023;DHT22;10669;51.076;3.714;2022-07-04T02:24:56;15.60;99.90
21023;DHT22;10669;51.076;3.714;2022-07-04T02:27:22;15.50;99.90
21023;DHT22;10669;51.076;3.714;2022-07-04T02:29:48;15.40;99.90
21023;DHT22;10669;51.076;3.714;2022-07-04T02:32:13;15.40;99.90
21023;DHT22;10669;51.076;3.714;2022-07-04T02:34:39;15.30;99.90
21023;DHT22;10669;51.076;3.714;2022-07-04T02:37:06;15.30;99.90
21023;DHT22;10669;51.076;3.714;2022-07-04T02:39:32;15.30;99.90
21023;DHT22;10669;51.076;3.714;2022-07-04T02:41:57;15.50;99.90
21023;DHT22;10669;51.076;3.714;2022-07-04T02:44:23;15.30;99.90
21023;DHT22;10669;51.076;3.714;2022-07-04T02:46:49;15.40;99.90
21023;DHT22;10669;51.076;3.714;2022-07-04T02:49:16;15.50;99.90
21023;DHT22;10669;51.076;3.714;2022-07-04T02:51:42;15.40;99.90
21023;DHT22;10669;51.076;3.714;2022-07-04T02:54:08;15.20;99.90
21023;DHT22;10669;51.076;3.714;2022-07-04T02:56:35;15.20;99.90
21023;DHT22;10669;51.076;3.714;2022-07-04T02:59:02;15.10;99.90
21023;DHT22;10669;51.076;3.714;2022-07-04T03:01:28;14.90;99.90
21023;DHT22;10669;51.076;3.714;2022-07-04T03:03:54;14.90;99.90
21023;DHT22;10669;51.076;3.714;2022-07-04T03:06:20;14.80;99.90
21023;DHT22;10669;51.076;3.714;2022-07-04T03:08:45;14.80;99.90
21023;DHT22;10669;51.076;3.714;2022-07-04T03:11:11;14.80;99.90
21023;DHT22;10669;51.076;3.714;2022-07-04T03:13:39;14.70;99.90
21023;DHT22;10669;51.076;3.714;2022-07-04T03:16:06;14.70;99.90
21023;DHT22;10669;51.076;3.714;2022-07-04T03:18:32;14.70;99.90
21023;DHT22;10669;51.076;3.714;2022-07-04T03:20:57;14.70;99.90
21023;DHT22;10669;51.076;3.714;2022-07-04T03:23:23;14.70;99.90
21023;DHT22;10669;51.076;3.714;2022-07-04T03:25:49;14.70;99.90
21023;DHT22;10669;51.076;3.714;2022-07-04T03:28:14;14.60;99.90
21023;DHT22;10669;51.076;3.714;2022-07-04T03:30:40;14.50;99.90
21023;DHT22;10669;51.076;3.714;2022-07-04T03:33:06;14.50;99.90
21023;DHT22;10669;51.076;3.714;2022-07-04T03:35:32;14.40;99.90
21023;DHT22;10669;51.076;3.714;2022-07-04T03:37:57;14.40;99.90
21023;DHT22;10669;51.076;3.714;2022-07-04T03:40:23;14.40;99.90
21023;DHT22;10669;51.076;3.714;2022-07-04T03:42:49;14.50;99.90
21023;DHT22;10669;51.076;3.714;2022-07-04T03:45:15;14.40;99.90
21023;DHT22;10669;51.076;3.714;2022-07-04T03:47:42;14.50;99.90
21023;DHT22;10669;51.076;3.714;2022-07-04T03:50:08;14.50;99.90
21023;DHT22;10669;51.076;3.714;2022-07-04T03:52:33;14.40;99.90
21023;DHT22;10669;51.076;3.714;2022-07-04T03:54:59;14.40;99.90
21023;DHT22;10669;51.076;3.714;2022-07-04T03:57:25;14.40;99.90
21023;DHT22;10669;51.076;3.714;2022-07-04T03:59:51;14.50;99.90
21023;DHT22;10669;51.076;3.714;2022-07-04T04:02:16;14.40;99.90
21023;DHT22;10669;51.076;3.714;2022-07-04T04:04:42;14.40;99.90
21023;DHT22;10669;51.076;3.714;2022-07-04T04:07:26;14.40;99.90
21023;DHT22;10669;51.076;3.714;2022-07-04T04:09:52;14.40;99.90
21023;DHT22;10669;51.076;3.714;2022-07-04T04:12:17;14.50;99.90
21023;DHT22;10669;51.076;3.714;2022-07-04T04:14:43;14.50;99.90
21023;DHT22;10669;51.076;3.714;2022-07-04T04:17:09;14.60;99.90
21023;DHT22;10669;51.076;3.714;2022-07-04T04:19:35;14.70;99.90
21023;DHT22;10669;51.076;3.714;2022-07-04T04:22:01;14.70;99.90
21023;DHT22;10669;51.076;3.714;2022-07-04T04:24:26;14.80;99.90
21023;DHT22;10669;51.076;3.714;2022-07-04T04:26:53;14.70;99.90
21023;DHT22;10669;51.076;3.714;2022-07-04T04:29:19;14.70;99.90
21023;DHT22;10669;51.076;3.714;2022-07-04T04:31:44;14.70;99.90
21023;DHT22;10669;51.076;3.714;2022-07-04T04:34:10;14.60;99.90
21023;DHT22;10669;51.076;3.714;2022-07-04T04:36:35;14.60;99.90
21023;DHT22;10669;51.076;3.714;2022-07-04T04:39:01;14.80;99.90
21023;DHT22;10669;51.076;3.714;2022-07-04T04:41:27;14.80;99.90
21023;DHT22;10669;51.076;3.714;2022-07-04T04:43:52;14.80;99.90
21023;DHT22;10669;51.076;3.714;2022-07-04T04:46:18;14.70;99.90
21023;DHT22;10669;51.076;3.714;2022-07-04T04:48:44;14.70;99.90
21023;DHT22;10669;51.076;3.714;2022-07-04T04:51:09;14.80;99.90
21023;DHT22;10669;51.076;3.714;2022-07-04T04:53:36;14.90;99.90
21023;DHT22;10669;51.076;3.714;2022-07-04T04:56:02;14.80;99.90
21023;DHT22;10669;51.076;3.714;2022-07-04T04:58:28;14.90;99.90
21023;DHT22;10669;51.076;3.714;2022-07-04T05:00:53;15.00;99.90
21023;DHT22;10669;51.076;3.714;2022-07-04T05:03:19;15.10;99.90
21023;DHT22;10669;51.076;3.714;2022-07-04T05:05:45;15.00;99.90
21023;DHT22;10669;51.076;3.714;2022-07-04T05:08:11;15.10;99.90
21023;DHT22;10669;51.076;3.714;2022-07-04T05:10:41;15.10;99.90
21023;DHT22;10669;51.076;3.714;2022-07-04T05:13:07;15.10;99.90
21023;DHT22;10669;51.076;3.714;2022-07-04T05:15:33;15.10;99.90
21023;DHT22;10669;51.076;3.714;2022-07-04T05:18:01;15.00;99.90
21023;DHT22;10669;51.076;3.714;2022-07-04T05:20:26;15.10;99.90
21023;DHT22;10669;51.076;3.714;2022-07-04T05:22:52;15.30;99.90
21023;DHT22;10669;51.076;3.714;2022-07-04T05:25:18;15.20;99.90
21023;DHT22;10669;51.076;3.714;2022-07-04T05:27:43;15.20;99.90
21023;DHT22;10669;51.076;3.714;2022-07-04T05:30:09;15.30;99.90
21023;DHT22;10669;51.076;3.714;2022-07-04T05:32:38;15.20;99.90
21023;DHT22;10669;51.076;3.714;2022-07-04T05:35:07;15.20;99.90
21023;DHT22;10669;51.076;3.714;2022-07-04T05:37:34;15.30;99.90
21023;DHT22;10669;51.076;3.714;2022-07-04T05:40:01;15.50;99.90
21023;DHT22;10669;51.076;3.714;2022-07-04T05:42:26;15.70;99.90
21023;DHT22;10669;51.076;3.714;2022-07-04T05:44:53;15.80;99.90
21023;DHT22;10669;51.076;3.714;2022-07-04T05:47:18;15.80;99.90
21023;DHT22;10669;51.076;3.714;2022-07-04T05:49:44;15.90;99.90
21023;DHT22;10669;51.076;3.714;2022-07-04T05:52:10;16.10;99.90
21023;DHT22;10669;51.076;3.714;2022-07-04T05:54:35;16.40;99.90
21023;DHT22;10669;51.076;3.714;2022-07-04T05:57:01;16.40;99.90
21023;DHT22;10669;51.076;3.714;2022-07-04T05:59:27;16.30;99.90
21023;DHT22;10669;51.076;3.714;2022-07-04T06:01:54;16.20;99.90
21023;DHT22;10669;51.076;3.714;2022-07-04T06:04:20;16.20;99.90
21023;DHT22;10669;51.076;3.714;2022-07-04T06:06:46;16.30;99.90
21023;DHT22;10669;51.076;3.714;2022-07-04T06:09:11;16.40;99.90
21023;DHT22;10669;51.076;3.714;2022-07-04T06:11:37;16.30;99.90
21023;DHT22;10669;51.076;3.714;2022-07-04T06:14:03;16.30;99.90
21023;DHT22;10669;51.076;3.714;2022-07-04T06:16:29;16.20;99.90
21023;DHT22;10669;51.076;3.714;2022-07-04T06:18:55;16.10;99.90
21023;DHT22;10669;51.076;3.714;2022-07-04T06:21:23;16.10;99.90
21023;DHT22;10669;51.076;3.714;2022-07-04T06:23:49;16.00;99.90
21023;DHT22;10669;51.076;3.714;2022-07-04T06:26:15;16.00;99.90
21023;DHT22;10669;51.076;3.714;2022-07-04T06:28:41;16.20;99.90
21023;DHT22;10669;51.076;3.714;2022-07-04T06:31:06;16.30;99.90
21023;DHT22;10669;51.076;3.714;2022-07-04T06:33:32;16.30;99.90
21023;DHT22;10669;51.076;3.714;2022-07-04T06:36:19;16.30;99.90
21023;DHT22;10669;51.076;3.714;2022-07-04T06:38:44;16.30;99.90
21023;DHT22;10669;51.076;3.714;2022-07-04T06:41:10;16.40;99.90
21023;DHT22;10669;51.076;3.714;2022-07-04T06:43:36;16.50;99.90
21023;DHT22;10669;51.076;3.714;2022-07-04T06:46:02;16.50;99.90
21023;DHT22;10669;51.076;3.714;2022-07-04T06:48:28;16.50;99.90
21023;DHT22;10669;51.076;3.714;2022-07-04T06:50:54;16.50;99.90
21023;DHT22;10669;51.076;3.714;2022-07-04T06:53:20;16.50;99.90
21023;DHT22;10669;51.076;3.714;2022-07-04T06:55:46;16.60;99.90
21023;DHT22;10669;51.076;3.714;2022-07-04T06:58:11;16.60;99.90
21023;DHT22;10669;51.076;3.714;2022-07-04T07:00:38;16.80;99.90
21023;DHT22;10669;51.076;3.714;2022-07-04T07:03:04;17.00;99.90
21023;DHT22;10669;51.076;3.714;2022-07-04T07:05:30;16.90;99.90
21023;DHT22;10669;51.076;3.714;2022-07-04T07:07:56;16.80;99.90
21023;DHT22;10669;51.076;3.714;2022-07-04T07:10:22;16.80;99.90
21023;DHT22;10669;51.076;3.714;2022-07-04T07:12:48;17.00;99.90
21023;DHT22;10669;51.076;3.714;2022-07-04T07:15:14;17.00;99.90
21023;DHT22;10669;51.076;3.714;2022-07-04T07:17:42;17.00;99.90
21023;DHT22;10669;51.076;3.714;2022-07-04T07:20:08;16.90;99.90
21023;DHT22;10669;51.076;3.714;2022-07-04T07:22:34;16.80;99.90
21023;DHT22;10669;51.076;3.714;2022-07-04T07:24:59;16.80;99.90
21023;DHT22;10669;51.076;3.714;2022-07-04T07:27:26;16.90;99.90
21023;DHT22;10669;51.076;3.714;2022-07-04T07:29:51;17.10;99.90
21023;DHT22;10669;51.076;3.714;2022-07-04T07:32:17;17.20;99.90
21023;DHT22;10669;51.076;3.714;2022-07-04T07:34:43;17.40;99.90
21023;DHT22;10669;51.076;3.714;2022-07-04T07:37:09;17.50;99.90
21023;DHT22;10669;51.076;3.714;2022-07-04T07:39:36;17.60;99.90
21023;DHT22;10669;51.076;3.714;2022-07-04T07:42:02;17.60;99.90
21023;DHT22;10669;51.076;3.714;2022-07-04T07:44:27;17.60;99.90
21023;DHT22;10669;51.076;3.714;2022-07-04T07:46:54;17.70;99.90
21023;DHT22;10669;51.076;3.714;2022-07-04T07:49:20;17.80;99.90
21023;DHT22;10669;51.076;3.714;2022-07-04T07:51:47;17.90;99.90
21023;DHT22;10669;51.076;3.714;2022-07-04T07:54:12;18.00;99.90
21023;DHT22;10669;51.076;3.714;2022-07-04T07:56:39;18.10;99.90
21023;DHT22;10669;51.076;3.714;2022-07-04T07:59:05;18.10;99.90
21023;DHT22;10669;51.076;3.714;2022-07-04T08:01:30;18.10;99.90
21023;DHT22;10669;51.076;3.714;2022-07-04T08:03:56;18.10;99.90
21023;DHT22;10669;51.076;3.714;2022-07-04T08:06:40;18.20;99.90
21023;DHT22;10669;51.076;3.714;2022-07-04T08:09:07;18.40;99.90
21023;DHT22;10669;51.076;3.714;2022-07-04T08:11:33;18.60;99.90
21023;DHT22;10669;51.076;3.714;2022-07-04T08:14:00;18.60;99.90
21023;DHT22;10669;51.076;3.714;2022-07-04T08:16:27;18.70;99.90
21023;DHT22;10669;51.076;3.714;2022-07-04T08:18:52;18.80;99.90
21023;DHT22;10669;51.076;3.714;2022-07-04T08:21:18;18.80;99.90
21023;DHT22;10669;51.076;3.714;2022-07-04T08:23:44;18.90;99.90
21023;DHT22;10669;51.076;3.714;2022-07-04T08:26:09;19.10;99.90
21023;DHT22;10669;51.076;3.714;2022-07-04T08:28:35;19.20;99.90
21023;DHT22;10669;51.076;3.714;2022-07-04T08:31:01;19.40;99.90
21023;DHT22;10669;51.076;3.714;2022-07-04T08:33:26;19.50;99.90
21023;DHT22;10669;51.076;3.714;2022-07-04T08:35:52;19.60;99.90
21023;DHT22;10669;51.076;3.714;2022-07-04T08:38:19;19.50;99.90
21023;DHT22;10669;51.076;3.714;2022-07-04T08:40:46;19.50;99.90
21023;DHT22;10669;51.076;3.714;2022-07-04T08:43:14;19.70;99.90
21023;DHT22;10669;51.076;3.714;2022-07-04T08:45:40;19.80;99.90
21023;DHT22;10669;51.076;3.714;2022-07-04T08:48:08;19.80;99.90
21023;DHT22;10669;51.076;3.714;2022-07-04T08:50:39;19.90;99.90
21023;DHT22;10669;51.076;3.714;2022-07-04T08:53:15;19.70;99.90
21023;DHT22;10669;51.076;3.714;2022-07-04T08:55:45;19.70;99.90
21023;DHT22;10669;51.076;3.714;2022-07-04T08:58:30;19.70;99.90
21023;DHT22;10669;51.076;3.714;2022-07-04T09:01:01;19.70;99.90
21023;DHT22;10669;51.076;3.714;2022-07-04T09:03:27;19.80;99.90
21023;DHT22;10669;51.076;3.714;2022-07-04T09:05:55;19.80;99.90
21023;DHT22;10669;51.076;3.714;2022-07-04T09:08:21;19.80;99.90
21023;DHT22;10669;51.076;3.714;2022-07-04T09:10:48;19.90;99.90
21023;DHT22;10669;51.076;3.714;2022-07-04T09:13:14;20.10;99.90
21023;DHT22;10669;51.076;3.714;2022-07-04T09:15:41;20.30;99.90
21023;DHT22;10669;51.076;3.714;2022-07-04T09:20:46;20.50;99.90
21023;DHT22;10669;51.076;3.714;2022-07-04T09:23:20;20.60;99.90
21023;DHT22;10669;51.076;3.714;2022-07-04T09:25:47;20.90;99.90
21023;DHT22;10669;51.076;3.714;2022-07-04T09:28:26;21.00;99.90
21023;DHT22;10669;51.076;3.714;2022-07-04T09:30:52;21.20;99.90
21023;DHT22;10669;51.076;3.714;2022-07-04T09:33:20;21.30;99.90
21023;DHT22;10669;51.076;3.714;2022-07-04T09:35:47;20.90;99.90
21023;DHT22;10669;51.076;3.714;2022-07-04T09:38:21;20.90;99.90
21023;DHT22;10669;51.076;3.714;2022-07-04T09:40:52;21.10;99.90
21023;DHT22;10669;51.076;3.714;2022-07-04T09:43:36;21.10;99.90
21023;DHT22;10669;51.076;3.714;2022-07-04T09:46:02;21.40;99.90
21023;DHT22;10669;51.076;3.714;2022-07-04T09:48:50;21.50;99.90
21023;DHT22;10669;51.076;3.714;2022-07-04T09:51:38;21.40;99.90
21023;DHT22;10669;51.076;3.714;2022-07-04T09:56:43;21.10;99.90
21023;DHT22;10669;51.076;3.714;2022-07-04T09:59:09;21.10;99.90
21023;DHT22;10669;51.076;3.714;2022-07-04T10:01:35;21.20;99.90
21023;DHT22;10669;51.076;3.714;2022-07-04T10:04:02;21.30;99.90
21023;DHT22;10669;51.076;3.714;2022-07-04T10:06:32;21.50;99.90
21023;DHT22;10669;51.076;3.714;2022-07-04T10:09:16;21.60;99.90
21023;DHT22;10669;51.076;3.714;2022-07-04T10:11:43;21.60;99.90
21023;DHT22;10669;51.076;3.714;2022-07-04T10:14:12;21.50;99.90
21023;DHT22;10669;51.076;3.714;2022-07-04T10:16:39;21.50;99.90
21023;DHT22;10669;51.076;3.714;2022-07-04T10:19:06;21.60;99.90
21023;DHT22;10669;51.076;3.714;2022-07-04T10:21:33;21.80;99.90
21023;DHT22;10669;51.076;3.714;2022-07-04T10:24:00;21.70;99.90
21023;DHT22;10669;51.076;3.714;2022-07-04T10:26:29;22.10;99.90
21023;DHT22;10669;51.076;3.714;2022-07-04T10:28:55;22.50;99.90
21023;DHT22;10669;51.076;3.714;2022-07-04T10:31:23;22.50;99.90
21023;DHT22;10669;51.076;3.714;2022-07-04T10:33:50;22.30;99.90
21023;DHT22;10669;51.076;3.714;2022-07-04T10:36:19;22.50;99.90
21023;DHT22;10669;51.076;3.714;2022-07-04T10:38:54;22.50;99.90
21023;DHT22;10669;51.076;3.714;2022-07-04T10:41:23;22.70;99.90
21023;DHT22;10669;51.076;3.714;2022-07-04T10:46:32;23.20;99.90
21023;DHT22;10669;51.076;3.714;2022-07-04T10:51:39;23.30;99.90
21023;DHT22;10669;51.076;3.714;2022-07-04T10:54:48;23.20;99.90
21023;DHT22;10669;51.076;3.714;2022-07-04T10:57:17;23.30;99.90
21023;DHT22;10669;51.076;3.714;2022-07-04T11:00:05;23.20;99.90
21023;DHT22;10669;51.076;3.714;2022-07-04T11:02:32;22.90;99.90
21023;DHT22;10669;51.076;3.714;2022-07-04T11:17:53;23.00;99.90
21023;DHT22;10669;51.076;3.714;2022-07-04T11:20:20;22.90;99.90
21023;DHT22;10669;51.076;3.714;2022-07-04T11:22:46;23.00;99.90
21023;DHT22;10669;51.076;3.714;2022-07-04T11:25:12;22.90;99.90
21023;DHT22;10669;51.076;3.714;2022-07-04T11:27:38;23.10;99.90
21023;DHT22;10669;51.076;3.714;2022-07-04T11:30:05;23.20;99.90
21023;DHT22;10669;51.076;3.714;2022-07-04T11:32:32;23.30;99.90
21023;DHT22;10669;51.076;3.714;2022-07-04T11:34:58;23.40;99.90
21023;DHT22;10669;51.076;3.714;2022-07-04T11:37:24;23.30;99.90
21023;DHT22;10669;51.076;3.714;2022-07-04T11:39:53;23.40;99.90
21023;DHT22;10669;51.076;3.714;2022-07-04T11:43:05;23.40;99.90
21023;DHT22;10669;51.076;3.714;2022-07-04T11:45:51;23.20;99.90
21023;DHT22;10669;51.076;3.714;2022-07-04T11:48:27;23.30;99.90
21023;DHT22;10669;51.076;3.714;2022-07-04T11:50:53;23.50;99.90
21023;DHT22;10669;51.076;3.714;2022-07-04T11:53:20;23.80;99.90
21023;DHT22;10669;51.076;3.714;2022-07-04T11:55:56;24.20;99.90
21023;DHT22;10669;51.076;3.714;2022-07-04T11:58:23;24.10;99.90
21023;DHT22;10669;51.076;3.714;2022-07-04T12:00:49;24.20;99.90
21023;DHT22;10669;51.076;3.714;2022-07-04T12:03:15;24.10;99.90
21023;DHT22;10669;51.076;3.714;2022-07-04T12:05:41;24.40;99.90
21023;DHT22;10669;51.076;3.714;2022-07-04T12:08:09;24.70;99.90
21023;DHT22;10669;51.076;3.714;2022-07-04T12:10:35;25.10;99.90
21023;DHT22;10669;51.076;3.714;2022-07-04T12:13:06;25.00;99.90
21023;DHT22;10669;51.076;3.714;2022-07-04T12:15:44;25.40;99.90
21023;DHT22;10669;51.076;3.714;2022-07-04T12:18:21;25.30;99.90
21023;DHT22;10669;51.076;3.714;2022-07-04T12:20:49;25.20;99.90
21023;DHT22;10669;51.076;3.714;2022-07-04T12:23:15;25.20;99.90
21023;DHT22;10669;51.076;3.714;2022-07-04T12:25:46;25.10;99.90
21023;DHT22;10669;51.076;3.714;2022-07-04T12:28:14;25.00;99.90
21023;DHT22;10669;51.076;3.714;2022-07-04T12:30:59;24.80;99.90
21023;DHT22;10669;51.076;3.714;2022-07-04T12:33:26;25.10;99.90
21023;DHT22;10669;51.076;3.714;2022-07-04T12:36:03;25.30;99.90
21023;DHT22;10669;51.076;3.714;2022-07-04T12:41:10;25.90;99.90
21023;DHT22;10669;51.076;3.714;2022-07-04T12:46:06;26.20;99.30
21023;DHT22;10669;51.076;3.714;2022-07-04T12:48:32;25.70;99.60
21023;DHT22;10669;51.076;3.714;2022-07-04T12:51:16;25.80;99.90
21023;DHT22;10669;51.076;3.714;2022-07-04T12:53:44;25.80;99.90
21023;DHT22;10669;51.076;3.714;2022-07-04T12:56:26;25.00;99.90
21023;DHT22;10669;51.076;3.714;2022-07-04T12:58:52;24.70;99.90
21023;DHT22;10669;51.076;3.714;2022-07-04T13:01:17;24.60;99.90
21023;DHT22;10669;51.076;3.714;2022-07-04T13:03:43;24.70;99.90
21023;DHT22;10669;51.076;3.714;2022-07-04T13:06:09;24.50;99.90
21023;DHT22;10669;51.076;3.714;2022-07-04T13:08:34;24.60;99.90
21023;DHT22;10669;51.076;3.714;2022-07-04T13:11:01;24.40;99.90
21023;DHT22;10669;51.076;3.714;2022-07-04T13:13:45;24.60;99.90
21023;DHT22;10669;51.076;3.714;2022-07-04T13:16:11;24.70;99.90
21023;DHT22;10669;51.076;3.714;2022-07-04T13:18:36;24.90;99.90
21023;DHT22;10669;51.076;3.714;2022-07-04T13:21:03;25.40;99.90
21023;DHT22;10669;51.076;3.714;2022-07-04T13:23:29;25.40;99.50
21023;DHT22;10669;51.076;3.714;2022-07-04T13:25:55;24.90;99.90
21023;DHT22;10669;51.076;3.714;2022-07-04T13:28:20;24.80;99.90
21023;DHT22;10669;51.076;3.714;2022-07-04T13:30:46;25.10;99.90
21023;DHT22;10669;51.076;3.714;2022-07-04T13:33:11;25.50;99.70
21023;DHT22;10669;51.076;3.714;2022-07-04T13:35:37;25.60;99.50
21023;DHT22;10669;51.076;3.714;2022-07-04T13:38:03;25.50;98.60
21023;DHT22;10669;51.076;3.714;2022-07-04T13:40:28;25.50;99.10
21023;DHT22;10669;51.076;3.714;2022-07-04T13:42:55;25.40;99.00
21023;DHT22;10669;51.076;3.714;2022-07-04T13:45:27;25.30;98.90
21023;DHT22;10669;51.076;3.714;2022-07-04T13:47:54;25.50;98.70
21023;DHT22;10669;51.076;3.714;2022-07-04T13:50:20;25.50;99.30
21023;DHT22;10669;51.076;3.714;2022-07-04T13:52:46;25.70;98.40
21023;DHT22;10669;51.076;3.714;2022-07-04T13:55:13;25.80;98.80
21023;DHT22;10669;51.076;3.714;2022-07-04T13:57:39;26.00;97.60
21023;DHT22;10669;51.076;3.714;2022-07-04T14:00:06;26.30;97.70
21023;DHT22;10669;51.076;3.714;2022-07-04T14:02:33;26.40;97.20
21023;DHT22;10669;51.076;3.714;2022-07-04T14:04:59;25.90;98.10
21023;DHT22;10669;51.076;3.714;2022-07-04T14:07:25;26.20;97.50
21023;DHT22;10669;51.076;3.714;2022-07-04T14:09:50;26.30;97.60
21023;DHT22;10669;51.076;3.714;2022-07-04T14:12:16;26.50;97.80
21023;DHT22;10669;51.076;3.714;2022-07-04T14:14:43;26.70;97.20
21023;DHT22;10669;51.076;3.714;2022-07-04T14:17:09;26.90;96.30
21023;DHT22;10669;51.076;3.714;2022-07-04T14:19:35;26.60;96.70
21023;DHT22;10669;51.076;3.714;2022-07-04T14:22:01;26.80;97.00
21023;DHT22;10669;51.076;3.714;2022-07-04T14:24:26;27.20;95.90
21023;DHT22;10669;51.076;3.714;2022-07-04T14:26:52;27.20;96.40
21023;DHT22;10669;51.076;3.714;2022-07-04T14:29:19;27.30;96.10
21023;DHT22;10669;51.076;3.714;2022-07-04T14:31:45;27.50;95.10
21023;DHT22;10669;51.076;3.714;2022-07-04T14:34:11;27.20;96.00
21023;DHT22;10669;51.076;3.714;2022-07-04T14:36:38;27.70;95.90
21023;DHT22;10669;51.076;3.714;2022-07-04T14:39:04;27.70;94.60
21023;DHT22;10669;51.076;3.714;2022-07-04T14:41:30;27.40;95.00
21023;DHT22;10669;51.076;3.714;2022-07-04T14:43:56;27.10;95.10
21023;DHT22;10669;51.076;3.714;2022-07-04T14:46:23;26.80;95.60
21023;DHT22;10669;51.076;3.714;2022-07-04T14:48:48;26.70;96.40
21023;DHT22;10669;51.076;3.714;2022-07-04T14:51:14;26.20;97.70
21023;DHT22;10669;51.076;3.714;2022-07-04T14:53:40;26.10;98.70
21023;DHT22;10669;51.076;3.714;2022-07-04T14:56:06;26.20;98.30
21023;DHT22;10669;51.076;3.714;2022-07-04T14:58:32;25.70;98.70
21023;DHT22;10669;51.076;3.714;2022-07-04T15:00:58;25.90;99.90
21023;DHT22;10669;51.076;3.714;2022-07-04T15:03:24;25.50;99.90
21023;DHT22;10669;51.076;3.714;2022-07-04T15:05:50;24.40;99.90
21023;DHT22;10669;51.076;3.714;2022-07-04T15:08:15;24.70;99.90
21023;DHT22;10669;51.076;3.714;2022-07-04T15:10:41;24.90;99.90
21023;DHT22;10669;51.076;3.714;2022-07-04T15:13:07;24.60;99.90
21023;DHT22;10669;51.076;3.714;2022-07-04T15:15:33;24.40;99.90
21023;DHT22;10669;51.076;3.714;2022-07-04T15:17:59;24.30;99.90
21023;DHT22;10669;51.076;3.714;2022-07-04T15:20:25;24.40;99.90
21023;DHT22;10669;51.076;3.714;2022-07-04T15:23:09;25.40;99.90
21023;DHT22;10669;51.076;3.714;2022-07-04T15:25:53;25.90;99.90
21023;DHT22;10669;51.076;3.714;2022-07-04T15:28:19;25.60;99.90
21023;DHT22;10669;51.076;3.714;2022-07-04T15:30:45;25.30;99.90
21023;DHT22;10669;51.076;3.714;2022-07-04T15:33:11;24.90;99.90
21023;DHT22;10669;51.076;3.714;2022-07-04T15:35:44;25.20;99.90
21023;DHT22;10669;51.076;3.714;2022-07-04T15:38:11;24.50;99.90
21023;DHT22;10669;51.076;3.714;2022-07-04T15:40:37;24.40;99.90
21023;DHT22;10669;51.076;3.714;2022-07-04T15:43:05;24.90;99.90
21023;DHT22;10669;51.076;3.714;2022-07-04T15:45:31;26.20;99.90
21023;DHT22;10669;51.076;3.714;2022-07-04T15:47:57;26.70;99.40
21023;DHT22;10669;51.076;3.714;2022-07-04T15:50:22;27.10;99.00
21023;DHT22;10669;51.076;3.714;2022-07-04T15:52:49;26.90;98.40
21023;DHT22;10669;51.076;3.714;2022-07-04T15:55:15;26.60;99.10
21023;DHT22;10669;51.076;3.714;2022-07-04T15:57:40;27.60;98.70
21023;DHT22;10669;51.076;3.714;2022-07-04T16:00:07;28.90;96.70